Aérodrome :
LOGIN :

S'inscrire | Disclaimer

   EN    FR    IT 

 










Légende :    VFR   VFR Marginal   IFR   IFR Intensif   IFR Très Intensif
Visi : 
Plafond : 
>= 8 km
>= 3000ft
5 à 8 km
1000 à 3000 ft
1500m à 5 km
500 à 1000 ft
800 à 1500m
200 à 500 ft
< 800m
< 200 ft
Symboles :   Orages  Brouillard  Fortes neiges  Fortes précipitations  Vent > 20 kt
SIGMETs :   Divers  Orages  Givrage  Turbulence  Onde Orograph.  Cendres Volcan.






- Altitude de l'aérodrome : 526 ft
- Code IATA : LTN


EGGW - London Luton

DERNIER METAR :
  • 192120Z AUTO 06007KT 020V090 9999 -RA BKN007 BKN012 OVC016 12/12 Q1011

METARs EXPIRÉS :
  • 192050Z AUTO 09006KT 9999 -RA BKN008 BKN011 OVC015 12/12 Q1011
  • 192020Z AUTO 07007KT 040V110 9999 -RA BKN006 OVC009 12/12 Q1011
  • 191950Z AUTO 09009KT 2500 -DZ BKN004 OVC010 13/12 Q1011
  • 191920Z AUTO 09005KT 7000 -RA BKN005 OVC009 13/12 Q1011
  • 191850Z AUTO 07007KT 9999 BKN004 OVC019 13/12 Q1011
  • 191820Z AUTO 09008KT 3800 -RA BKN004 OVC008 13/12 Q1012

TAF TAF EGGW
Valide du 19 à 18h jusqu'au 20 à 18h UTC


191702Z 1918/2018 07010KT 9999 SCT007 BKN015
TEMPO 1918/1922 5000 -RADZ BKN009
PROB30
TEMPO 1918/1922 3000 RADZ BKN004
BECMG 1922/2001 BKN008
TEMPO 1922/2003 5000 -RADZ BKN004
PROB30
TEMPO 1922/2003 2000 RADZ
PROB40
TEMPO 2003/2008 0800 RADZ FG BKN000
TEMPO 2008/2011 3000 -RADZ BKN003
BECMG 2011/2014 BKN025
TEMPO 2011/2016 8000 SHRA BKN012
PROB40
TEMPO 2016/2018 4000 -RADZ BKN004
ATIS : +44 1582 395 204



MET'MAP, la Météo Aéronautique d'un coup d'oeil ! - Copyright ORBIFLY Décembre 2007 - Disclaimer

ORBIFLY MET'MAP TEAM :

Programmation & Développement : Alexandra Zaïnal
Sur une idée originale de : Baudouin d'Aumeries
Assistance à la programmation : Marc-Olivier Méhu
Soutien technique & logistique : Manuel Goepfert

Contact : metmap@orbifly.com




SOURCES & CREDITS :

   NOAA